sensor_id;sensor_type;location;lat;lon;timestamp;P1;durP1;ratioP1;P2;durP2;ratioP2
68995;SDS011;56056;48.990;12.146;2023-03-24T00:01:38;759.35;;;707.40;;
68995;SDS011;56056;48.990;12.146;2023-03-24T00:04:03;720.90;;;671.55;;
68995;SDS011;56056;48.990;12.146;2023-03-24T00:06:29;735.15;;;686.63;;
68995;SDS011;56056;48.990;12.146;2023-03-24T00:09:00;749.42;;;699.58;;
68995;SDS011;56056;48.990;12.146;2023-03-24T00:11:30;769.65;;;717.97;;
68995;SDS011;56056;48.990;12.146;2023-03-24T00:13:59;737.20;;;688.50;;
68995;SDS011;56056;48.990;12.146;2023-03-24T00:16:25;737.90;;;688.83;;
68995;SDS011;56056;48.990;12.146;2023-03-24T00:18:51;768.00;;;717.00;;
68995;SDS011;56056;48.990;12.146;2023-03-24T00:21:17;658.92;;;616.58;;
68995;SDS011;56056;48.990;12.146;2023-03-24T00:23:45;674.67;;;629.85;;
68995;SDS011;56056;48.990;12.146;2023-03-24T00:26:15;681.63;;;638.15;;
68995;SDS011;56056;48.990;12.146;2023-03-24T00:28:41;712.58;;;665.83;;
68995;SDS011;56056;48.990;12.146;2023-03-24T00:31:09;718.63;;;670.83;;
68995;SDS011;56056;48.990;12.146;2023-03-24T00:33:35;726.25;;;678.83;;
68995;SDS011;56056;48.990;12.146;2023-03-24T00:36:02;650.75;;;607.10;;
68995;SDS011;56056;48.990;12.146;2023-03-24T00:38:29;709.90;;;663.67;;
68995;SDS011;56056;48.990;12.146;2023-03-24T00:40:55;731.03;;;683.75;;
68995;SDS011;56056;48.990;12.146;2023-03-24T00:43:24;684.40;;;639.75;;
68995;SDS011;56056;48.990;12.146;2023-03-24T00:45:56;639.70;;;599.10;;
68995;SDS011;56056;48.990;12.146;2023-03-24T00:48:22;671.85;;;626.53;;
68995;SDS011;56056;48.990;12.146;2023-03-24T00:50:49;697.13;;;651.22;;
68995;SDS011;56056;48.990;12.146;2023-03-24T00:53:16;695.97;;;648.28;;
68995;SDS011;56056;48.990;12.146;2023-03-24T00:55:43;674.45;;;627.67;;
68995;SDS011;56056;48.990;12.146;2023-03-24T00:58:14;672.63;;;627.80;;
68995;SDS011;56056;48.990;12.146;2023-03-24T01:00:43;700.25;;;654.50;;
68995;SDS011;56056;48.990;12.146;2023-03-24T01:03:09;630.47;;;588.42;;
68995;SDS011;56056;48.990;12.146;2023-03-24T01:05:35;640.22;;;598.65;;
68995;SDS011;56056;48.990;12.146;2023-03-24T01:08:02;598.50;;;559.20;;
68995;SDS011;56056;48.990;12.146;2023-03-24T01:10:29;673.67;;;629.30;;
68995;SDS011;56056;48.990;12.146;2023-03-24T01:12:57;684.80;;;636.05;;
68995;SDS011;56056;48.990;12.146;2023-03-24T01:15:24;588.42;;;551.00;;
68995;SDS011;56056;48.990;12.146;2023-03-24T01:17:53;750.15;;;697.60;;
68995;SDS011;56056;48.990;12.146;2023-03-24T01:20:19;742.85;;;687.67;;
68995;SDS011;56056;48.990;12.146;2023-03-24T01:22:47;639.17;;;597.13;;
68995;SDS011;56056;48.990;12.146;2023-03-24T01:25:13;635.97;;;593.15;;
68995;SDS011;56056;48.990;12.146;2023-03-24T01:27:40;708.53;;;658.25;;
68995;SDS011;56056;48.990;12.146;2023-03-24T01:30:06;688.00;;;640.95;;
68995;SDS011;56056;48.990;12.146;2023-03-24T01:32:33;600.63;;;561.58;;
68995;SDS011;56056;48.990;12.146;2023-03-24T01:35:00;656.35;;;610.72;;
68995;SDS011;56056;48.990;12.146;2023-03-24T01:37:26;572.90;;;538.58;;
68995;SDS011;56056;48.990;12.146;2023-03-24T01:39:51;721.38;;;671.58;;
68995;SDS011;56056;48.990;12.146;2023-03-24T01:42:18;685.45;;;638.63;;
68995;SDS011;56056;48.990;12.146;2023-03-24T01:44:45;679.63;;;634.47;;
68995;SDS011;56056;48.990;12.146;2023-03-24T01:47:12;656.25;;;612.55;;
68995;SDS011;56056;48.990;12.146;2023-03-24T01:49:39;656.53;;;613.22;;
68995;SDS011;56056;48.990;12.146;2023-03-24T01:52:08;582.38;;;546.22;;
68995;SDS011;56056;48.990;12.146;2023-03-24T01:54:36;667.03;;;621.30;;
68995;SDS011;56056;48.990;12.146;2023-03-24T01:57:05;657.38;;;613.78;;
68995;SDS011;56056;48.990;12.146;2023-03-24T01:59:34;732.85;;;679.70;;
68995;SDS011;56056;48.990;12.146;2023-03-24T02:02:02;713.60;;;664.67;;
68995;SDS011;56056;48.990;12.146;2023-03-24T02:04:29;700.15;;;651.88;;
68995;SDS011;56056;48.990;12.146;2023-03-24T02:06:55;669.20;;;624.15;;
68995;SDS011;56056;48.990;12.146;2023-03-24T02:09:22;699.45;;;650.58;;
68995;SDS011;56056;48.990;12.146;2023-03-24T02:11:48;686.08;;;639.08;;
68995;SDS011;56056;48.990;12.146;2023-03-24T02:14:15;682.20;;;635.17;;
68995;SDS011;56056;48.990;12.146;2023-03-24T02:16:45;665.17;;;621.65;;
68995;SDS011;56056;48.990;12.146;2023-03-24T02:19:29;672.40;;;623.22;;
68995;SDS011;56056;48.990;12.146;2023-03-24T02:22:33;737.33;;;685.80;;
68995;SDS011;56056;48.990;12.146;2023-03-24T02:28:10;764.55;;;710.72;;
68995;SDS011;56056;48.990;12.146;2023-03-24T02:30:53;766.20;;;713.70;;
68995;SDS011;56056;48.990;12.146;2023-03-24T02:33:59;823.40;;;764.53;;
68995;SDS011;56056;48.990;12.146;2023-03-24T02:37:00;789.30;;;736.90;;
68995;SDS011;56056;48.990;12.146;2023-03-24T02:39:50;788.03;;;732.58;;
68995;SDS011;56056;48.990;12.146;2023-03-24T02:42:33;736.40;;;683.75;;
68995;SDS011;56056;48.990;12.146;2023-03-24T02:45:07;752.28;;;697.60;;
68995;SDS011;56056;48.990;12.146;2023-03-24T02:47:42;708.25;;;658.67;;
68995;SDS011;56056;48.990;12.146;2023-03-24T02:50:14;711.42;;;662.17;;
68995;SDS011;56056;48.990;12.146;2023-03-24T02:52:44;719.88;;;668.38;;
68995;SDS011;56056;48.990;12.146;2023-03-24T02:55:15;724.40;;;672.80;;
68995;SDS011;56056;48.990;12.146;2023-03-24T02:57:43;700.03;;;650.38;;
68995;SDS011;56056;48.990;12.146;2023-03-24T03:00:14;724.85;;;672.70;;
68995;SDS011;56056;48.990;12.146;2023-03-24T03:02:43;610.58;;;568.75;;
68995;SDS011;56056;48.990;12.146;2023-03-24T03:05:12;787.55;;;728.83;;
68995;SDS011;56056;48.990;12.146;2023-03-24T03:07:40;713.30;;;662.25;;
68995;SDS011;56056;48.990;12.146;2023-03-24T03:10:09;758.53;;;703.78;;
68995;SDS011;56056;48.990;12.146;2023-03-24T03:12:39;760.25;;;704.15;;
68995;SDS011;56056;48.990;12.146;2023-03-24T03:15:07;843.58;;;779.78;;
68995;SDS011;56056;48.990;12.146;2023-03-24T03:17:37;870.22;;;803.92;;
68995;SDS011;56056;48.990;12.146;2023-03-24T03:20:06;815.90;;;750.22;;
68995;SDS011;56056;48.990;12.146;2023-03-24T03:22:36;818.55;;;750.42;;
68995;SDS011;56056;48.990;12.146;2023-03-24T03:25:03;813.85;;;751.97;;
68995;SDS011;56056;48.990;12.146;2023-03-24T03:27:30;836.25;;;768.00;;
68995;SDS011;56056;48.990;12.146;2023-03-24T03:30:05;868.33;;;797.90;;
68995;SDS011;56056;48.990;12.146;2023-03-24T03:32:33;957.10;;;882.70;;
68995;SDS011;56056;48.990;12.146;2023-03-24T03:35:05;901.75;;;826.83;;
68995;SDS011;56056;48.990;12.146;2023-03-24T03:37:33;887.63;;;816.47;;
68995;SDS011;56056;48.990;12.146;2023-03-24T03:40:03;903.42;;;827.55;;
68995;SDS011;56056;48.990;12.146;2023-03-24T03:42:31;912.40;;;839.53;;
68995;SDS011;56056;48.990;12.146;2023-03-24T03:44:57;910.05;;;837.38;;
68995;SDS011;56056;48.990;12.146;2023-03-24T03:47:24;885.20;;;810.83;;
68995;SDS011;56056;48.990;12.146;2023-03-24T03:49:50;880.25;;;807.05;;
68995;SDS011;56056;48.990;12.146;2023-03-24T03:52:16;873.78;;;804.35;;
68995;SDS011;56056;48.990;12.146;2023-03-24T03:54:42;866.10;;;798.00;;
68995;SDS011;56056;48.990;12.146;2023-03-24T03:57:08;869.05;;;794.42;;
68995;SDS011;56056;48.990;12.146;2023-03-24T03:59:36;813.13;;;748.22;;
68995;SDS011;56056;48.990;12.146;2023-03-24T04:02:05;889.58;;;818.40;;
68995;SDS011;56056;48.990;12.146;2023-03-24T04:04:44;851.25;;;785.13;;
68995;SDS011;56056;48.990;12.146;2023-03-24T04:07:18;868.33;;;799.20;;
68995;SDS011;56056;48.990;12.146;2023-03-24T04:09:50;871.17;;;802.45;;
68995;SDS011;56056;48.990;12.146;2023-03-24T04:12:31;844.47;;;779.72;;
68995;SDS011;56056;48.990;12.146;2023-03-24T04:15:12;886.63;;;819.75;;
68995;SDS011;56056;48.990;12.146;2023-03-24T04:17:55;849.90;;;778.92;;
68995;SDS011;56056;48.990;12.146;2023-03-24T04:20:38;928.30;;;856.60;;
68995;SDS011;56056;48.990;12.146;2023-03-24T04:23:12;928.10;;;850.83;;
68995;SDS011;56056;48.990;12.146;2023-03-24T04:25:47;943.88;;;863.38;;
68995;SDS011;56056;48.990;12.146;2023-03-24T04:28:23;958.05;;;880.45;;
68995;SDS011;56056;48.990;12.146;2023-03-24T04:30:53;946.75;;;864.83;;
68995;SDS011;56056;48.990;12.146;2023-03-24T04:33:23;919.70;;;844.53;;
68995;SDS011;56056;48.990;12.146;2023-03-24T04:35:54;891.55;;;821.05;;
68995;SDS011;56056;48.990;12.146;2023-03-24T04:38:25;955.35;;;879.08;;
68995;SDS011;56056;48.990;12.146;2023-03-24T04:40:52;920.45;;;842.22;;
68995;SDS011;56056;48.990;12.146;2023-03-24T04:43:20;927.78;;;854.38;;
68995;SDS011;56056;48.990;12.146;2023-03-24T04:45:49;934.72;;;854.70;;
68995;SDS011;56056;48.990;12.146;2023-03-24T04:48:15;919.88;;;839.28;;
68995;SDS011;56056;48.990;12.146;2023-03-24T04:50:52;897.90;;;823.88;;
68995;SDS011;56056;48.990;12.146;2023-03-24T04:53:20;918.55;;;847.63;;
68995;SDS011;56056;48.990;12.146;2023-03-24T04:55:49;918.65;;;842.33;;
68995;SDS011;56056;48.990;12.146;2023-03-24T04:58:21;931.75;;;846.05;;
68995;SDS011;56056;48.990;12.146;2023-03-24T05:00:47;883.17;;;814.55;;
68995;SDS011;56056;48.990;12.146;2023-03-24T05:03:14;873.15;;;800.53;;
68995;SDS011;56056;48.990;12.146;2023-03-24T05:05:40;929.67;;;849.72;;
68995;SDS011;56056;48.990;12.146;2023-03-24T05:08:08;901.65;;;826.08;;
68995;SDS011;56056;48.990;12.146;2023-03-24T05:10:35;891.45;;;816.97;;
68995;SDS011;56056;48.990;12.146;2023-03-24T05:13:01;860.60;;;790.80;;
68995;SDS011;56056;48.990;12.146;2023-03-24T05:15:26;911.15;;;833.88;;
68995;SDS011;56056;48.990;12.146;2023-03-24T05:17:52;940.38;;;860.70;;
68995;SDS011;56056;48.990;12.146;2023-03-24T05:20:18;912.95;;;836.65;;
68995;SDS011;56056;48.990;12.146;2023-03-24T05:22:44;945.70;;;868.13;;
68995;SDS011;56056;48.990;12.146;2023-03-24T05:25:11;1356.45;;;984.40;;
68995;SDS011;56056;48.990;12.146;2023-03-24T05:27:36;969.22;;;885.80;;
68995;SDS011;56056;48.990;12.146;2023-03-24T05:30:02;950.45;;;867.35;;
68995;SDS011;56056;48.990;12.146;2023-03-24T05:32:29;898.72;;;820.17;;
68995;SDS011;56056;48.990;12.146;2023-03-24T05:34:55;935.13;;;851.22;;
68995;SDS011;56056;48.990;12.146;2023-03-24T05:37:20;961.22;;;884.88;;
68995;SDS011;56056;48.990;12.146;2023-03-24T05:39:46;950.60;;;869.00;;
68995;SDS011;56056;48.990;12.146;2023-03-24T05:42:13;930.67;;;845.22;;
68995;SDS011;56056;48.990;12.146;2023-03-24T05:44:39;920.58;;;848.08;;
68995;SDS011;56056;48.990;12.146;2023-03-24T05:47:05;931.25;;;853.33;;
68995;SDS011;56056;48.990;12.146;2023-03-24T05:49:30;920.72;;;843.28;;
68995;SDS011;56056;48.990;12.146;2023-03-24T05:51:56;936.78;;;860.80;;
68995;SDS011;56056;48.990;12.146;2023-03-24T05:54:22;914.05;;;839.00;;
68995;SDS011;56056;48.990;12.146;2023-03-24T05:56:48;925.22;;;848.65;;
68995;SDS011;56056;48.990;12.146;2023-03-24T05:59:15;905.13;;;831.72;;
68995;SDS011;56056;48.990;12.146;2023-03-24T06:01:41;905.92;;;832.00;;
68995;SDS011;56056;48.990;12.146;2023-03-24T06:04:06;912.63;;;835.35;;
68995;SDS011;56056;48.990;12.146;2023-03-24T06:06:32;919.50;;;843.70;;
68995;SDS011;56056;48.990;12.146;2023-03-24T06:08:58;864.53;;;794.33;;
68995;SDS011;56056;48.990;12.146;2023-03-24T06:11:26;827.95;;;760.60;;
68995;SDS011;56056;48.990;12.146;2023-03-24T06:13:52;878.30;;;808.92;;
68995;SDS011;56056;48.990;12.146;2023-03-24T06:16:19;816.03;;;751.55;;
68995;SDS011;56056;48.990;12.146;2023-03-24T06:18:47;833.88;;;767.50;;
68995;SDS011;56056;48.990;12.146;2023-03-24T06:21:16;965.20;;;872.95;;
68995;SDS011;56056;48.990;12.146;2023-03-24T06:23:42;794.13;;;733.22;;
68995;SDS011;56056;48.990;12.146;2023-03-24T06:26:09;776.95;;;716.13;;
68995;SDS011;56056;48.990;12.146;2023-03-24T06:28:35;856.60;;;786.45;;
68995;SDS011;56056;48.990;12.146;2023-03-24T06:31:03;838.85;;;773.60;;
68995;SDS011;56056;48.990;12.146;2023-03-24T06:33:31;822.83;;;757.10;;
68995;SDS011;56056;48.990;12.146;2023-03-24T06:35:56;937.72;;;846.42;;
68995;SDS011;56056;48.990;12.146;2023-03-24T06:38:22;831.63;;;764.67;;
68995;SDS011;56056;48.990;12.146;2023-03-24T06:40:47;875.30;;;799.72;;
68995;SDS011;56056;48.990;12.146;2023-03-24T06:43:13;880.53;;;812.33;;
68995;SDS011;56056;48.990;12.146;2023-03-24T06:45:39;888.83;;;818.78;;
68995;SDS011;56056;48.990;12.146;2023-03-24T06:48:05;854.83;;;786.33;;
68995;SDS011;56056;48.990;12.146;2023-03-24T06:50:32;809.05;;;743.60;;
68995;SDS011;56056;48.990;12.146;2023-03-24T06:52:59;842.65;;;777.65;;
68995;SDS011;56056;48.990;12.146;2023-03-24T06:55:25;894.28;;;814.25;;
68995;SDS011;56056;48.990;12.146;2023-03-24T06:57:51;893.58;;;823.08;;
68995;SDS011;56056;48.990;12.146;2023-03-24T07:00:17;839.83;;;775.47;;
68995;SDS011;56056;48.990;12.146;2023-03-24T07:02:43;826.72;;;757.95;;
68995;SDS011;56056;48.990;12.146;2023-03-24T07:05:09;862.33;;;792.95;;
68995;SDS011;56056;48.990;12.146;2023-03-24T07:07:37;891.10;;;817.90;;
68995;SDS011;56056;48.990;12.146;2023-03-24T07:10:06;882.15;;;808.83;;
68995;SDS011;56056;48.990;12.146;2023-03-24T07:12:32;905.55;;;825.20;;
68995;SDS011;56056;48.990;12.146;2023-03-24T07:14:58;905.70;;;827.45;;
68995;SDS011;56056;48.990;12.146;2023-03-24T07:17:24;862.85;;;788.35;;
68995;SDS011;56056;48.990;12.146;2023-03-24T07:19:50;892.55;;;818.40;;
68995;SDS011;56056;48.990;12.146;2023-03-24T07:22:15;1025.80;;;915.25;;
68995;SDS011;56056;48.990;12.146;2023-03-24T07:24:42;931.33;;;847.15;;
68995;SDS011;56056;48.990;12.146;2023-03-24T07:27:08;923.75;;;853.53;;
68995;SDS011;56056;48.990;12.146;2023-03-24T07:29:33;939.55;;;864.40;;
68995;SDS011;56056;48.990;12.146;2023-03-24T07:32:00;924.63;;;842.30;;
68995;SDS011;56056;48.990;12.146;2023-03-24T07:34:26;936.13;;;855.47;;
68995;SDS011;56056;48.990;12.146;2023-03-24T07:36:52;932.80;;;845.10;;
68995;SDS011;56056;48.990;12.146;2023-03-24T07:39:17;951.38;;;871.15;;
68995;SDS011;56056;48.990;12.146;2023-03-24T07:41:45;941.90;;;859.33;;
68995;SDS011;56056;48.990;12.146;2023-03-24T07:44:11;964.50;;;879.97;;
68995;SDS011;56056;48.990;12.146;2023-03-24T07:46:37;899.60;;;818.55;;
68995;SDS011;56056;48.990;12.146;2023-03-24T07:49:03;930.25;;;852.25;;
68995;SDS011;56056;48.990;12.146;2023-03-24T07:51:30;884.42;;;810.38;;
68995;SDS011;56056;48.990;12.146;2023-03-24T07:53:56;942.83;;;863.30;;
68995;SDS011;56056;48.990;12.146;2023-03-24T07:56:22;894.20;;;816.60;;
68995;SDS011;56056;48.990;12.146;2023-03-24T07:58:49;936.40;;;853.47;;
68995;SDS011;56056;48.990;12.146;2023-03-24T08:01:15;938.45;;;855.40;;
68995;SDS011;56056;48.990;12.146;2023-03-24T08:03:42;844.83;;;773.33;;
68995;SDS011;56056;48.990;12.146;2023-03-24T08:06:08;858.75;;;787.53;;
68995;SDS011;56056;48.990;12.146;2023-03-24T08:08:34;849.97;;;775.17;;
68995;SDS011;56056;48.990;12.146;2023-03-24T08:11:00;844.95;;;774.35;;
68995;SDS011;56056;48.990;12.146;2023-03-24T08:13:26;831.10;;;764.92;;
68995;SDS011;56056;48.990;12.146;2023-03-24T08:15:53;848.03;;;776.35;;
68995;SDS011;56056;48.990;12.146;2023-03-24T08:18:18;994.80;;;896.85;;
68995;SDS011;56056;48.990;12.146;2023-03-24T08:20:45;862.15;;;787.25;;
68995;SDS011;56056;48.990;12.146;2023-03-24T08:23:10;821.13;;;751.25;;
68995;SDS011;56056;48.990;12.146;2023-03-24T08:25:36;825.42;;;759.47;;
68995;SDS011;56056;48.990;12.146;2023-03-24T08:28:02;877.63;;;804.67;;
68995;SDS011;56056;48.990;12.146;2023-03-24T08:30:28;902.88;;;826.38;;
68995;SDS011;56056;48.990;12.146;2023-03-24T08:32:56;915.30;;;838.53;;
68995;SDS011;56056;48.990;12.146;2023-03-24T08:35:24;893.83;;;816.78;;
68995;SDS011;56056;48.990;12.146;2023-03-24T08:37:51;901.25;;;822.90;;
68995;SDS011;56056;48.990;12.146;2023-03-24T08:40:17;845.58;;;776.63;;
68995;SDS011;56056;48.990;12.146;2023-03-24T08:42:47;898.88;;;822.17;;
68995;SDS011;56056;48.990;12.146;2023-03-24T08:45:14;850.75;;;776.30;;
68995;SDS011;56056;48.990;12.146;2023-03-24T08:47:40;882.47;;;802.05;;
68995;SDS011;56056;48.990;12.146;2023-03-24T08:50:07;835.70;;;766.00;;
68995;SDS011;56056;48.990;12.146;2023-03-24T08:52:34;855.38;;;780.13;;
68995;SDS011;56056;48.990;12.146;2023-03-24T08:55:00;747.60;;;690.55;;
68995;SDS011;56056;48.990;12.146;2023-03-24T08:57:26;798.65;;;730.88;;
68995;SDS011;56056;48.990;12.146;2023-03-24T08:59:51;872.65;;;794.83;;
68995;SDS011;56056;48.990;12.146;2023-03-24T09:02:18;860.95;;;786.40;;
68995;SDS011;56056;48.990;12.146;2023-03-24T09:04:43;862.20;;;785.78;;
68995;SDS011;56056;48.990;12.146;2023-03-24T09:07:12;857.47;;;783.88;;
68995;SDS011;56056;48.990;12.146;2023-03-24T09:09:38;821.95;;;749.13;;
68995;SDS011;56056;48.990;12.146;2023-03-24T09:12:04;834.55;;;765.45;;
68995;SDS011;56056;48.990;12.146;2023-03-24T09:14:30;863.00;;;786.58;;
68995;SDS011;56056;48.990;12.146;2023-03-24T09:16:56;849.53;;;775.08;;
68995;SDS011;56056;48.990;12.146;2023-03-24T09:19:21;876.30;;;799.50;;
68995;SDS011;56056;48.990;12.146;2023-03-24T09:21:47;861.75;;;784.47;;
68995;SDS011;56056;48.990;12.146;2023-03-24T09:24:14;883.40;;;800.83;;
68995;SDS011;56056;48.990;12.146;2023-03-24T09:26:40;908.78;;;822.63;;
68995;SDS011;56056;48.990;12.146;2023-03-24T09:29:06;928.38;;;841.35;;
68995;SDS011;56056;48.990;12.146;2023-03-24T09:31:32;912.78;;;824.53;;
68995;SDS011;56056;48.990;12.146;2023-03-24T09:33:58;911.25;;;826.53;;
68995;SDS011;56056;48.990;12.146;2023-03-24T09:36:24;918.85;;;829.20;;
68995;SDS011;56056;48.990;12.146;2023-03-24T09:38:50;905.13;;;817.63;;
68995;SDS011;56056;48.990;12.146;2023-03-24T09:41:17;902.30;;;815.53;;
68995;SDS011;56056;48.990;12.146;2023-03-24T09:43:45;926.55;;;834.15;;
68995;SDS011;56056;48.990;12.146;2023-03-24T09:46:14;760.03;;;697.20;;
68995;SDS011;56056;48.990;12.146;2023-03-24T09:48:45;908.80;;;821.13;;
68995;SDS011;56056;48.990;12.146;2023-03-24T09:51:14;1036.25;;;896.53;;
68995;SDS011;56056;48.990;12.146;2023-03-24T09:53:44;883.90;;;798.75;;
68995;SDS011;56056;48.990;12.146;2023-03-24T09:56:13;1079.68;;;905.55;;
68995;SDS011;56056;48.990;12.146;2023-03-24T09:58:41;928.97;;;837.45;;
68995;SDS011;56056;48.990;12.146;2023-03-24T10:01:10;927.08;;;838.83;;
68995;SDS011;56056;48.990;12.146;2023-03-24T10:03:38;993.28;;;890.22;;
68995;SDS011;56056;48.990;12.146;2023-03-24T10:06:05;947.22;;;850.95;;
68995;SDS011;56056;48.990;12.146;2023-03-24T10:08:33;841.10;;;765.35;;
68995;SDS011;56056;48.990;12.146;2023-03-24T10:11:01;869.00;;;786.97;;
68995;SDS011;56056;48.990;12.146;2023-03-24T10:13:30;958.92;;;861.97;;
68995;SDS011;56056;48.990;12.146;2023-03-24T10:16:03;925.58;;;837.63;;
68995;SDS011;56056;48.990;12.146;2023-03-24T10:18:32;952.42;;;865.88;;
68995;SDS011;56056;48.990;12.146;2023-03-24T10:21:02;783.50;;;714.85;;
68995;SDS011;56056;48.990;12.146;2023-03-24T10:23:32;1172.05;;;926.85;;
68995;SDS011;56056;48.990;12.146;2023-03-24T10:26:04;929.80;;;839.47;;
68995;SDS011;56056;48.990;12.146;2023-03-24T10:28:38;1334.85;;;981.75;;
68995;SDS011;56056;48.990;12.146;2023-03-24T10:31:10;1151.78;;;889.40;;
68995;SDS011;56056;48.990;12.146;2023-03-24T10:33:38;1039.15;;;837.08;;
68995;SDS011;56056;48.990;12.146;2023-03-24T10:36:07;920.13;;;829.17;;
68995;SDS011;56056;48.990;12.146;2023-03-24T10:38:35;1025.03;;;915.22;;
68995;SDS011;56056;48.990;12.146;2023-03-24T10:41:00;867.70;;;786.80;;
68995;SDS011;56056;48.990;12.146;2023-03-24T10:43:27;1388.35;;;998.63;;
68995;SDS011;56056;48.990;12.146;2023-03-24T10:45:53;975.72;;;873.72;;
68995;SDS011;56056;48.990;12.146;2023-03-24T10:48:35;902.67;;;813.45;;
68995;SDS011;56056;48.990;12.146;2023-03-24T10:51:06;937.17;;;837.85;;
68995;SDS011;56056;48.990;12.146;2023-03-24T10:53:32;966.53;;;865.17;;
68995;SDS011;56056;48.990;12.146;2023-03-24T10:55:58;804.85;;;736.80;;
68995;SDS011;56056;48.990;12.146;2023-03-24T10:58:28;980.85;;;874.25;;
68995;SDS011;56056;48.990;12.146;2023-03-24T11:00:55;948.25;;;854.47;;
68995;SDS011;56056;48.990;12.146;2023-03-24T11:03:24;1669.97;;;994.60;;
68995;SDS011;56056;48.990;12.146;2023-03-24T11:05:58;951.05;;;850.67;;
68995;SDS011;56056;48.990;12.146;2023-03-24T11:08:25;870.60;;;785.35;;
68995;SDS011;56056;48.990;12.146;2023-03-24T11:10:52;796.95;;;725.05;;
68995;SDS011;56056;48.990;12.146;2023-03-24T11:13:18;901.03;;;817.25;;
68995;SDS011;56056;48.990;12.146;2023-03-24T11:15:55;878.50;;;797.47;;
68995;SDS011;56056;48.990;12.146;2023-03-24T11:18:22;821.50;;;745.83;;
68995;SDS011;56056;48.990;12.146;2023-03-24T11:20:50;883.17;;;807.40;;
68995;SDS011;56056;48.990;12.146;2023-03-24T11:23:19;870.35;;;792.55;;
68995;SDS011;56056;48.990;12.146;2023-03-24T11:25:52;961.63;;;881.53;;
68995;SDS011;56056;48.990;12.146;2023-03-24T11:28:26;929.50;;;833.45;;
68995;SDS011;56056;48.990;12.146;2023-03-24T11:30:53;854.70;;;766.47;;
68995;SDS011;56056;48.990;12.146;2023-03-24T11:33:20;947.22;;;850.58;;
68995;SDS011;56056;48.990;12.146;2023-03-24T11:35:47;837.47;;;763.80;;
68995;SDS011;56056;48.990;12.146;2023-03-24T11:38:14;862.20;;;776.08;;
68995;SDS011;56056;48.990;12.146;2023-03-24T11:40:46;959.30;;;860.45;;
68995;SDS011;56056;48.990;12.146;2023-03-24T11:43:18;908.25;;;817.60;;
68995;SDS011;56056;48.990;12.146;2023-03-24T11:45:45;932.60;;;837.30;;
68995;SDS011;56056;48.990;12.146;2023-03-24T11:48:21;1154.63;;;966.47;;
68995;SDS011;56056;48.990;12.146;2023-03-24T11:50:50;926.58;;;832.53;;
68995;SDS011;56056;48.990;12.146;2023-03-24T11:53:17;973.10;;;875.90;;
68995;SDS011;56056;48.990;12.146;2023-03-24T11:55:48;1018.45;;;871.72;;
68995;SDS011;56056;48.990;12.146;2023-03-24T11:58:18;1547.50;;;999.90;;
68995;SDS011;56056;48.990;12.146;2023-03-24T12:00:53;912.35;;;817.63;;
68995;SDS011;56056;48.990;12.146;2023-03-24T12:03:29;908.47;;;770.78;;
68995;SDS011;56056;48.990;12.146;2023-03-24T12:06:05;906.67;;;820.50;;
68995;SDS011;56056;48.990;12.146;2023-03-24T12:08:41;841.75;;;765.90;;
68995;SDS011;56056;48.990;12.146;2023-03-24T12:11:15;1179.20;;;916.92;;
68995;SDS011;56056;48.990;12.146;2023-03-24T12:13:45;800.10;;;728.90;;
68995;SDS011;56056;48.990;12.146;2023-03-24T12:16:20;982.50;;;826.60;;
68995;SDS011;56056;48.990;12.146;2023-03-24T12:22:08;926.72;;;791.03;;
68995;SDS011;56056;48.990;12.146;2023-03-24T12:24:46;742.65;;;648.33;;
68995;SDS011;56056;48.990;12.146;2023-03-24T12:27:30;819.25;;;750.22;;
68995;SDS011;56056;48.990;12.146;2023-03-24T12:30:01;855.55;;;776.90;;
68995;SDS011;56056;48.990;12.146;2023-03-24T12:32:33;858.55;;;782.42;;
68995;SDS011;56056;48.990;12.146;2023-03-24T12:35:15;945.28;;;861.53;;
68995;SDS011;56056;48.990;12.146;2023-03-24T12:37:51;1095.55;;;992.45;;
68995;SDS011;56056;48.990;12.146;2023-03-24T12:40:37;1077.47;;;966.17;;
68995;SDS011;56056;48.990;12.146;2023-03-24T12:43:13;942.22;;;860.40;;
68995;SDS011;56056;48.990;12.146;2023-03-24T12:45:44;877.50;;;807.92;;
68995;SDS011;56056;48.990;12.146;2023-03-24T12:48:19;999.35;;;899.90;;
68995;SDS011;56056;48.990;12.146;2023-03-24T12:50:58;916.15;;;838.38;;
68995;SDS011;56056;48.990;12.146;2023-03-24T12:53:33;1034.13;;;941.47;;
68995;SDS011;56056;48.990;12.146;2023-03-24T12:56:07;1004.13;;;903.25;;
68995;SDS011;56056;48.990;12.146;2023-03-24T12:58:37;959.72;;;862.65;;
68995;SDS011;56056;48.990;12.146;2023-03-24T13:01:06;954.85;;;873.22;;
68995;SDS011;56056;48.990;12.146;2023-03-24T13:03:37;967.47;;;888.15;;
68995;SDS011;56056;48.990;12.146;2023-03-24T13:06:08;927.80;;;852.67;;
68995;SDS011;56056;48.990;12.146;2023-03-24T13:08:38;965.20;;;885.78;;
68995;SDS011;56056;48.990;12.146;2023-03-24T13:11:06;954.88;;;871.15;;
68995;SDS011;56056;48.990;12.146;2023-03-24T13:13:35;854.78;;;784.45;;
68995;SDS011;56056;48.990;12.146;2023-03-24T13:16:05;989.15;;;900.17;;
68995;SDS011;56056;48.990;12.146;2023-03-24T13:18:33;816.75;;;754.25;;
68995;SDS011;56056;48.990;12.146;2023-03-24T13:21:02;795.20;;;734.95;;
68995;SDS011;56056;48.990;12.146;2023-03-24T13:23:37;776.60;;;716.72;;
68995;SDS011;56056;48.990;12.146;2023-03-24T13:26:09;814.22;;;754.35;;
68995;SDS011;56056;48.990;12.146;2023-03-24T13:28:47;872.40;;;803.47;;
68995;SDS011;56056;48.990;12.146;2023-03-24T13:31:18;909.25;;;835.15;;
68995;SDS011;56056;48.990;12.146;2023-03-24T13:33:45;770.22;;;710.28;;
68995;SDS011;56056;48.990;12.146;2023-03-24T13:36:21;959.05;;;880.53;;
68995;SDS011;56056;48.990;12.146;2023-03-24T13:38:53;833.05;;;769.70;;
68995;SDS011;56056;48.990;12.146;2023-03-24T13:41:21;858.47;;;794.15;;
68995;SDS011;56056;48.990;12.146;2023-03-24T13:43:56;819.63;;;753.25;;
68995;SDS011;56056;48.990;12.146;2023-03-24T13:46:23;892.42;;;824.22;;
68995;SDS011;56056;48.990;12.146;2023-03-24T13:48:49;951.63;;;871.13;;
68995;SDS011;56056;48.990;12.146;2023-03-24T13:51:16;1146.82;;;999.90;;
68995;SDS011;56056;48.990;12.146;2023-03-24T13:53:43;881.60;;;812.20;;
68995;SDS011;56056;48.990;12.146;2023-03-24T13:56:19;883.85;;;815.45;;
68995;SDS011;56056;48.990;12.146;2023-03-24T13:58:50;877.92;;;811.58;;
68995;SDS011;56056;48.990;12.146;2023-03-24T14:01:33;1507.20;;;999.90;;